Terminal Aerodrome Forecast
Issued by NWS

Home | Current Version | Previous Version | Graphics & Text | Print | Product List | Glossary On
Versions: 1 2 3 4 5 6 7 8 9 10 11 12 13 14 15 16 17 18 19 20 21 22 23
647
FTUS43 KBIS 181720
TAFMOT
TAF
KMOT 181720Z 1818/1918 33007KT P6SM SCT100 BKN250
     FM182100 07004KT P6SM BKN100 OVC200
     FM190900 08008KT P6SM OVC015
     FM191500 09010KT 4SM BR OVC008=

USA.gov is the U.S. government's official web portal to all federal, state and local government web resources and services.